createdAt,value
2018-07-06T00:01:02.200Z,95025.16
2018-07-06T00:03:48.727Z,95025.69
2018-07-06T00:06:35.299Z,95020.20
2018-07-06T00:09:21.935Z,95021.17
2018-07-06T00:12:08.565Z,95025.03
2018-07-06T00:14:55.219Z,95017.58
2018-07-06T00:17:41.840Z,95021.96
2018-07-06T00:20:28.500Z,95027.04
2018-07-06T00:23:14.980Z,95022.56
2018-07-06T00:26:01.479Z,95017.80
2018-07-06T00:28:48.037Z,95022.75
2018-07-06T00:31:34.716Z,95021.42
2018-07-06T00:34:21.123Z,95022.59
2018-07-06T00:37:07.764Z,95023.32
2018-07-06T00:39:54.334Z,95021.70
2018-07-06T00:42:40.883Z,95023.63
2018-07-06T00:45:27.416Z,95026.99
2018-07-06T00:48:13.928Z,95029.08
2018-07-06T00:51:02.343Z,95026.45
2018-07-06T00:53:48.955Z,95017.77
2018-07-06T00:56:35.560Z,95018.22
2018-07-06T00:59:22.094Z,95016.13
2018-07-06T01:02:08.431Z,95027.39
2018-07-06T01:04:55.143Z,95018.52
2018-07-06T01:07:41.698Z,95017.11
2018-07-06T01:10:28.268Z,95015.86
2018-07-06T01:13:14.739Z,95008.55
2018-07-06T01:16:01.180Z,95011.96
2018-07-06T01:18:47.736Z,95014.69
2018-07-06T01:21:34.247Z,95015.00
2018-07-06T01:24:20.760Z,95015.56
2018-07-06T01:27:07.363Z,95010.11
2018-07-06T01:29:53.951Z,95006.24
2018-07-06T01:32:40.628Z,94997.47
2018-07-06T01:35:27.131Z,95006.84
2018-07-06T01:38:13.647Z,95003.00
2018-07-06T01:41:00.270Z,94997.98
2018-07-06T01:43:46.920Z,94999.37
2018-07-06T01:46:33.380Z,95003.53
2018-07-06T01:49:19.923Z,95000.05
2018-07-06T01:52:06.470Z,94997.91
2018-07-06T01:54:52.989Z,94991.55
2018-07-06T01:57:39.497Z,94993.19
2018-07-06T02:00:26.138Z,94989.58
2018-07-06T02:03:12.827Z,94987.92
2018-07-06T02:05:59.436Z,94986.37
2018-07-06T02:08:45.882Z,94986.89
2018-07-06T02:11:32.558Z,94991.78
2018-07-06T02:14:19.060Z,94987.72
2018-07-06T02:17:05.643Z,94986.63
2018-07-06T02:19:52.235Z,94997.94
2018-07-06T02:22:38.856Z,94999.10
2018-07-06T02:25:25.426Z,95001.23
2018-07-06T02:28:11.937Z,94998.31
2018-07-06T02:30:58.584Z,95000.87
2018-07-06T02:33:45.215Z,94996.71
2018-07-06T02:36:31.636Z,95003.42
2018-07-06T02:39:18.147Z,95003.10
2018-07-06T02:42:04.731Z,95000.31
2018-07-06T02:44:51.307Z,95004.62
2018-07-06T02:47:37.876Z,95007.13
2018-07-06T02:50:24.475Z,95006.19
2018-07-06T02:53:11.112Z,95001.45
2018-07-06T02:55:57.644Z,94998.28
2018-07-06T02:58:44.252Z,95003.91
2018-07-06T03:01:30.886Z,94993.66
2018-07-06T03:04:17.400Z,95000.67
2018-07-06T03:07:03.863Z,95003.01
2018-07-06T03:09:50.527Z,94998.50
2018-07-06T03:12:36.963Z,95005.38
2018-07-06T03:15:23.476Z,95004.80
2018-07-06T03:18:10.295Z,95009.79
2018-07-06T03:20:56.952Z,95006.70
2018-07-06T03:23:43.784Z,95005.23
2018-07-06T03:26:34.695Z,95005.29
2018-07-06T03:29:21.266Z,95005.98
2018-07-06T03:32:08.631Z,95003.59
2018-07-06T03:34:55.267Z,95001.50
2018-07-06T03:37:41.908Z,95004.05
2018-07-06T03:40:28.515Z,95003.91
2018-07-06T03:43:14.951Z,95002.14
2018-07-06T03:46:01.607Z,95008.09
2018-07-06T03:48:48.111Z,95006.09
2018-07-06T03:51:34.651Z,95011.03
2018-07-06T03:54:21.087Z,95008.82
2018-07-06T03:57:10.492Z,95001.97
2018-07-06T03:59:57.020Z,95005.42
2018-07-06T04:02:44.237Z,95001.57
2018-07-06T04:05:30.868Z,95002.22
2018-07-06T04:08:17.399Z,95001.13
2018-07-06T04:11:04.137Z,95002.87
2018-07-06T04:13:50.760Z,94994.41
2018-07-06T04:16:37.332Z,94997.47
2018-07-06T04:19:23.840Z,94996.48
2018-07-06T04:22:10.542Z,95004.55
2018-07-06T04:24:57.016Z,95005.67
2018-07-06T04:27:43.635Z,95002.98
2018-07-06T04:30:30.327Z,95011.02
2018-07-06T04:33:16.935Z,95010.38
2018-07-06T04:36:03.432Z,95010.92
2018-07-06T04:38:50.072Z,95005.69
2018-07-06T04:41:36.725Z,95004.64
2018-07-06T04:44:23.405Z,95006.66
2018-07-06T04:47:10.037Z,95005.99
2018-07-06T04:49:56.461Z,95013.64
2018-07-06T04:52:42.860Z,95001.00
2018-07-06T04:55:29.404Z,95011.84
2018-07-06T04:58:16.204Z,94999.61
2018-07-06T05:01:03.132Z,95003.50
2018-07-06T05:03:49.571Z,95003.02
2018-07-06T05:06:36.201Z,95007.19
2018-07-06T05:09:22.768Z,95000.25
2018-07-06T05:12:09.292Z,95000.77
2018-07-06T05:14:55.960Z,95001.66
2018-07-06T05:17:42.455Z,94993.08
2018-07-06T05:20:28.954Z,95005.82
2018-07-06T05:23:15.595Z,95000.04
2018-07-06T05:26:02.051Z,95005.86
2018-07-06T05:28:48.687Z,95014.35
2018-07-06T05:31:35.248Z,95011.64
2018-07-06T05:34:21.885Z,95009.46
2018-07-06T05:37:08.708Z,95004.77
2018-07-06T05:39:55.336Z,95010.13
2018-07-06T05:42:41.923Z,94998.41
2018-07-06T05:45:28.556Z,95002.88
2018-07-06T05:48:15.088Z,95000.91
2018-07-06T05:51:01.748Z,95005.29
2018-07-06T05:53:48.494Z,95006.80
2018-07-06T05:56:34.861Z,95007.52
2018-07-06T05:59:21.534Z,95007.05
2018-07-06T06:02:08.176Z,95008.92
2018-07-06T06:04:54.759Z,95007.33
2018-07-06T06:07:29.097Z,94996.64
2018-07-06T06:09:58.566Z,95006.84
2018-07-06T06:12:28.399Z,95007.67
2018-07-06T06:14:58.327Z,95016.70
2018-07-06T06:17:28.207Z,95012.78
2018-07-06T06:19:58.038Z,95016.41
2018-07-06T06:22:27.826Z,95019.60
2018-07-06T06:24:57.755Z,95016.04
2018-07-06T06:27:27.483Z,95008.52
2018-07-06T06:29:57.443Z,95003.80
2018-07-06T06:32:27.377Z,95006.50
2018-07-06T06:34:57.311Z,95002.30
2018-07-06T06:37:27.175Z,95002.95
2018-07-06T06:39:57.087Z,95002.68
2018-07-06T06:42:26.986Z,95000.63
2018-07-06T06:44:56.875Z,94995.52
2018-07-06T06:47:26.752Z,94988.70
2018-07-06T06:49:56.808Z,94989.31
2018-07-06T06:52:26.751Z,94989.04
2018-07-06T06:54:56.679Z,94984.77
2018-07-06T06:57:26.557Z,94985.59
2018-07-06T06:59:56.503Z,94987.95
2018-07-06T07:02:26.383Z,94983.55
2018-07-06T07:04:56.451Z,94983.92
2018-07-06T07:07:26.745Z,94992.86
2018-07-06T07:09:56.750Z,94990.34
2018-07-06T07:12:26.643Z,94988.17
2018-07-06T07:14:56.563Z,94987.80
2018-07-06T07:17:26.451Z,94983.02
2018-07-06T07:19:56.329Z,94981.48
2018-07-06T07:22:26.332Z,94981.09
2018-07-06T07:24:56.255Z,94973.11
2018-07-06T07:27:26.267Z,94969.54
2018-07-06T07:29:56.219Z,94976.47
2018-07-06T07:32:26.044Z,94981.65
2018-07-06T07:34:55.903Z,94975.81
2018-07-06T07:37:25.829Z,94973.52
2018-07-06T07:39:55.801Z,94973.34
2018-07-06T07:42:25.836Z,94973.02
2018-07-06T07:44:56.800Z,94976.95
2018-07-06T07:47:26.943Z,94974.70
2018-07-06T07:49:56.812Z,94965.95
2018-07-06T07:52:37.540Z,94968.05
2018-07-06T07:55:07.434Z,94968.17
2018-07-06T07:57:37.265Z,94969.64
2018-07-06T08:00:07.081Z,94965.03
2018-07-06T08:02:37.074Z,94968.59
2018-07-06T08:05:06.967Z,94963.83
2018-07-06T08:07:36.974Z,94963.29
2018-07-06T08:10:06.860Z,94962.31
2018-07-06T08:12:36.783Z,94962.75
2018-07-06T08:15:06.787Z,94965.64
2018-07-06T08:17:36.620Z,94959.02
2018-07-06T08:20:06.580Z,94957.72
2018-07-06T08:22:36.351Z,94955.69
2018-07-06T08:25:06.163Z,94953.06
2018-07-06T08:27:36.041Z,94949.94
2018-07-06T08:30:05.987Z,94955.20
2018-07-06T08:32:35.839Z,94953.16
2018-07-06T08:35:16.472Z,94953.91
2018-07-06T08:37:57.711Z,94955.47
2018-07-06T08:40:28.065Z,94949.54
2018-07-06T08:42:58.942Z,94946.02
2018-07-06T08:45:29.404Z,94949.10
2018-07-06T08:47:59.402Z,94946.68
2018-07-06T08:50:29.359Z,94952.47
2018-07-06T08:52:59.389Z,94942.52
2018-07-06T08:55:29.534Z,94948.30
2018-07-06T08:57:59.695Z,94944.81
2018-07-06T09:00:29.564Z,94941.64
2018-07-06T09:02:59.457Z,94941.69
2018-07-06T09:05:29.348Z,94934.64
2018-07-06T09:07:59.197Z,94937.36
2018-07-06T09:10:29.016Z,94941.92
2018-07-06T09:12:58.826Z,94936.62
2018-07-06T09:15:28.716Z,94936.92
2018-07-06T09:17:58.506Z,94935.39
2018-07-06T09:20:28.336Z,94929.02
2018-07-06T09:22:58.985Z,94932.49
2018-07-06T09:25:28.865Z,94930.84
2018-07-06T09:27:58.671Z,94924.47
2018-07-06T09:30:28.433Z,94921.48
2018-07-06T09:32:58.292Z,94917.81
2018-07-06T09:35:28.211Z,94912.84
2018-07-06T09:37:58.067Z,94906.69
2018-07-06T09:40:27.908Z,94906.34
2018-07-06T09:42:57.719Z,94901.48
2018-07-06T09:45:27.608Z,94905.34
2018-07-06T09:47:57.472Z,94900.28
2018-07-06T09:50:27.274Z,94904.03
2018-07-06T09:52:57.248Z,94906.41
2018-07-06T09:55:27.067Z,94911.77
2018-07-06T09:57:56.899Z,94905.94
2018-07-06T10:00:31.655Z,94902.96
2018-07-06T10:03:01.477Z,94901.18
2018-07-06T10:05:31.386Z,94899.57
2018-07-06T10:08:01.136Z,94898.80
2018-07-06T10:10:31.035Z,94895.40
2018-07-06T10:13:00.912Z,94888.94
2018-07-06T10:15:30.788Z,94886.13
2018-07-06T10:18:00.597Z,94894.48
2018-07-06T10:20:30.512Z,94893.41
2018-07-06T10:23:00.299Z,94886.27
2018-07-06T10:25:30.147Z,94889.21
2018-07-06T10:30:11.887Z,94884.66
2018-07-06T10:32:41.811Z,94888.73
2018-07-06T10:35:11.576Z,94885.22
2018-07-06T10:37:41.471Z,94888.19
2018-07-06T10:40:11.372Z,94883.61
2018-07-06T10:42:41.171Z,94877.98
2018-07-06T10:45:11.052Z,94877.47
2018-07-06T10:47:40.915Z,94875.61
2018-07-06T10:50:10.744Z,94877.25
2018-07-06T10:52:40.520Z,94875.91
2018-07-06T10:55:10.405Z,94872.41
2018-07-06T10:57:40.336Z,94872.44
2018-07-06T11:00:10.265Z,94875.38
2018-07-06T11:02:40.155Z,94870.09
2018-07-06T11:05:09.959Z,94867.16
2018-07-06T11:07:39.808Z,94863.15
2018-07-06T11:10:09.680Z,94858.63
2018-07-06T11:12:39.455Z,94871.44
2018-07-06T11:15:09.387Z,94863.95
2018-07-06T11:17:39.235Z,94869.31
2018-07-06T11:20:09.067Z,94870.92
2018-07-06T11:22:38.875Z,94865.54
2018-07-06T11:25:08.817Z,94852.39
2018-07-06T11:27:38.673Z,94841.69
2018-07-06T11:30:08.665Z,94838.44
2018-07-06T11:32:38.638Z,94840.09
2018-07-06T11:35:08.943Z,94831.55
2018-07-06T11:37:38.770Z,94832.07
2018-07-06T11:40:08.680Z,94835.05
2018-07-06T11:42:38.507Z,94832.07
2018-07-06T11:45:08.525Z,94829.39
2018-07-06T11:47:38.407Z,94832.08
2018-07-06T11:50:08.270Z,94842.00
2018-07-06T11:52:38.081Z,94843.91
2018-07-06T11:55:08.121Z,94840.14
2018-07-06T11:57:37.932Z,94839.33
2018-07-06T12:00:07.832Z,94832.38
2018-07-06T12:02:37.754Z,94825.65
2018-07-06T12:05:07.789Z,94824.58
2018-07-06T12:07:37.703Z,94818.16
2018-07-06T12:10:07.543Z,94811.17
2018-07-06T12:12:37.350Z,94799.35
2018-07-06T12:15:07.416Z,94793.74
2018-07-06T12:17:37.220Z,94787.03
2018-07-06T12:20:07.227Z,94791.30
2018-07-06T12:22:37.039Z,94784.34
2018-07-06T12:25:07.055Z,94789.44
2018-07-06T12:27:36.830Z,94793.19
2018-07-06T12:30:06.699Z,94800.98
2018-07-06T12:32:36.571Z,94809.03
2018-07-06T12:35:06.422Z,94797.23
2018-07-06T12:37:36.206Z,94794.28
2018-07-06T12:40:06.086Z,94796.97
2018-07-06T12:42:35.914Z,94792.40
2018-07-06T12:45:05.962Z,94800.45
2018-07-06T12:47:36.033Z,94795.90
2018-07-06T12:50:06.291Z,94792.12
2018-07-06T12:52:36.596Z,94800.45
2018-07-06T12:55:06.503Z,94802.61
2018-07-06T12:57:36.283Z,94798.58
2018-07-06T13:00:06.280Z,94796.95
2018-07-06T13:02:36.589Z,94791.33
2018-07-06T13:05:06.519Z,94796.16
2018-07-06T13:07:36.596Z,94795.63
2018-07-06T13:10:06.792Z,94787.57
2018-07-06T13:12:36.571Z,94779.78
2018-07-06T13:15:06.543Z,94780.34
2018-07-06T13:17:36.382Z,94772.55
2018-07-06T13:20:06.231Z,94778.98
2018-07-06T13:22:36.071Z,94784.88
2018-07-06T13:25:06.004Z,94794.54
2018-07-06T13:27:35.960Z,94802.06
2018-07-06T13:30:05.923Z,94807.41
2018-07-06T13:32:35.748Z,94807.41
2018-07-06T13:35:05.582Z,94798.83
2018-07-06T13:37:35.384Z,94794.25
2018-07-06T13:40:05.243Z,94796.98
2018-07-06T13:42:35.048Z,94802.84
2018-07-06T13:45:05.006Z,94789.44
2018-07-06T13:47:34.813Z,94809.03
2018-07-06T13:50:04.724Z,94807.69
2018-07-06T13:52:34.711Z,94800.44
2018-07-06T13:55:04.632Z,94807.95
2018-07-06T13:57:34.520Z,94809.31
2018-07-06T14:00:04.455Z,94813.31
2018-07-06T14:02:34.357Z,94811.67
2018-07-06T14:05:04.151Z,94820.48
2018-07-06T14:07:34.001Z,94837.87
2018-07-06T14:10:03.855Z,94849.39
2018-07-06T14:12:33.637Z,94846.28
2018-07-06T14:15:03.492Z,94844.11
2018-07-06T14:17:33.243Z,94842.45
2018-07-06T14:20:03.150Z,94848.23
2018-07-06T14:22:32.909Z,94849.00
2018-07-06T14:25:02.673Z,94864.48
2018-07-06T14:27:32.610Z,94868.69
2018-07-06T14:30:02.463Z,94875.88
2018-07-06T14:32:32.327Z,94880.00
2018-07-06T14:35:02.109Z,94885.03
2018-07-06T14:37:32.048Z,94896.22
2018-07-06T14:40:01.835Z,94912.20
2018-07-06T14:42:31.875Z,94908.94
2018-07-06T14:45:01.690Z,94913.48
2018-07-06T14:47:31.548Z,94902.96
2018-07-06T14:50:01.489Z,94882.39
2018-07-06T14:52:31.401Z,94879.86
2018-07-06T14:55:01.188Z,94890.11
2018-07-06T14:57:31.107Z,94892.53
2018-07-06T15:00:01.095Z,94893.98
2018-07-06T15:02:30.998Z,94903.13
2018-07-06T15:05:00.856Z,94905.81
2018-07-06T15:07:30.772Z,94898.62
2018-07-06T15:10:00.624Z,94893.34
2018-07-06T15:12:30.507Z,94887.06
2018-07-06T15:15:00.215Z,94889.17
2018-07-06T15:17:30.017Z,94876.16
2018-07-06T15:19:59.854Z,94872.95
2018-07-06T15:22:29.643Z,94873.48
2018-07-06T15:24:59.550Z,94870.27
2018-07-06T15:27:29.392Z,94863.55
2018-07-06T15:29:59.252Z,94859.23
2018-07-06T15:32:29.037Z,94851.20
2018-07-06T15:34:58.868Z,94852.24
2018-07-06T15:37:28.631Z,94851.38
2018-07-06T15:39:58.424Z,94856.99
2018-07-06T15:42:28.264Z,94862.61
2018-07-06T15:44:58.055Z,94864.25
2018-07-06T15:47:27.878Z,94868.53
2018-07-06T15:49:57.743Z,94865.78
2018-07-06T15:52:27.567Z,94869.27
2018-07-06T15:54:57.375Z,94863.61
2018-07-06T15:57:27.219Z,94858.53
2018-07-06T15:59:57.191Z,94856.05
2018-07-06T16:02:26.963Z,94857.16
2018-07-06T16:04:56.852Z,94853.67
2018-07-06T16:07:26.755Z,94849.39
2018-07-06T16:09:56.500Z,94854.88
2018-07-06T16:12:26.316Z,94855.12
2018-07-06T16:14:56.183Z,94849.66
2018-07-06T16:17:26.056Z,94849.13
2018-07-06T16:19:55.966Z,94851.50
2018-07-06T16:22:25.930Z,94846.42
2018-07-06T16:24:55.723Z,94838.39
2018-07-06T16:27:25.556Z,94842.44
2018-07-06T16:29:55.411Z,94839.27
2018-07-06T16:32:25.223Z,94839.77
2018-07-06T16:34:55.098Z,94838.08
2018-07-06T16:37:24.939Z,94829.75
2018-07-06T16:39:54.812Z,94830.30
2018-07-06T16:42:24.549Z,94828.56
2018-07-06T16:44:54.459Z,94827.14
2018-07-06T16:47:24.337Z,94816.09
2018-07-06T16:49:54.294Z,94815.83
2018-07-06T16:52:24.446Z,94811.46
2018-07-06T16:54:54.259Z,94811.28
2018-07-06T16:57:24.196Z,94807.84
2018-07-06T16:59:54.076Z,94815.02
2018-07-06T17:02:23.983Z,94817.97
2018-07-06T17:04:53.885Z,94828.48
2018-07-06T17:07:23.797Z,94834.89
2018-07-06T17:09:53.627Z,94833.02
2018-07-06T17:12:23.392Z,94845.78
2018-07-06T17:14:53.251Z,94853.37
2018-07-06T17:17:23.061Z,94854.00
2018-07-06T17:19:52.823Z,94857.98
2018-07-06T17:22:22.696Z,94864.30
2018-07-06T17:24:52.524Z,94873.80
2018-07-06T17:27:22.436Z,94887.53
2018-07-06T17:29:52.167Z,94894.84
2018-07-06T17:32:22.052Z,94909.22
2018-07-06T17:34:51.835Z,94904.41
2018-07-06T17:37:21.715Z,94911.52
2018-07-06T17:39:51.571Z,94905.45
2018-07-06T17:42:21.393Z,94909.08
2018-07-06T17:44:51.227Z,94908.36
2018-07-06T17:47:21.013Z,94911.80
2018-07-06T17:49:50.891Z,94914.75
2018-07-06T17:52:20.699Z,94911.17
2018-07-06T17:54:50.992Z,94911.45
2018-07-06T17:57:20.980Z,94916.42
2018-07-06T17:59:50.799Z,94913.84
2018-07-06T18:02:20.909Z,94908.64
2018-07-06T18:04:50.858Z,94902.36
2018-07-06T18:07:20.879Z,94902.31
2018-07-06T18:09:50.687Z,94904.57
2018-07-06T18:12:20.586Z,94893.36
2018-07-06T18:14:50.474Z,94887.28
2018-07-06T18:17:21.184Z,94885.41
2018-07-06T18:19:51.353Z,94880.27
2018-07-06T18:22:22.132Z,94869.44
2018-07-06T18:24:52.115Z,94868.27
2018-07-06T18:27:23.165Z,94867.98
2018-07-06T18:29:53.099Z,94868.27
2018-07-06T18:32:23.145Z,94872.65
2018-07-06T18:34:53.179Z,94873.59
2018-07-06T18:37:23.280Z,94880.81
2018-07-06T18:39:53.227Z,94881.06
2018-07-06T18:42:23.167Z,94880.20
2018-07-06T18:44:53.559Z,94890.12
2018-07-06T18:47:23.783Z,94891.20
2018-07-06T18:49:53.583Z,94893.44
2018-07-06T18:52:23.487Z,94888.58
2018-07-06T18:54:53.753Z,94899.42
2018-07-06T18:57:23.603Z,94905.38
2018-07-06T18:59:53.591Z,94908.23
2018-07-06T19:02:24.088Z,94911.80
2018-07-06T19:04:54.012Z,94911.34
2018-07-06T19:07:23.872Z,94910.09
2018-07-06T19:09:53.996Z,94911.90
2018-07-06T19:12:23.835Z,94912.69
2018-07-06T19:14:54.167Z,94919.09
2018-07-06T19:17:24.182Z,94920.95
2018-07-06T19:19:54.154Z,94922.22
2018-07-06T19:22:24.016Z,94911.86
2018-07-06T19:24:53.857Z,94906.11
2018-07-06T19:27:23.839Z,94905.14
2018-07-06T19:29:53.619Z,94898.74
2018-07-06T19:32:23.512Z,94896.61
2018-07-06T19:34:53.311Z,94903.02
2018-07-06T19:37:23.103Z,94910.55
2018-07-06T19:39:52.984Z,94918.16
2018-07-06T19:42:22.779Z,94922.77
2018-07-06T19:44:52.643Z,94937.55
2018-07-06T19:47:22.505Z,94938.41
2018-07-06T19:49:52.363Z,94946.09
2018-07-06T19:52:22.476Z,94956.48
2018-07-06T19:54:52.395Z,94959.78
2018-07-06T19:57:22.486Z,94965.73
2018-07-06T19:59:52.332Z,94965.73
2018-07-06T20:02:22.124Z,94960.92
2018-07-06T20:04:51.990Z,94967.34
2018-07-06T20:07:21.848Z,94964.59
2018-07-06T20:09:51.648Z,94964.03
2018-07-06T20:12:21.475Z,94950.89
2018-07-06T20:14:51.427Z,94951.58
2018-07-06T20:17:21.263Z,94945.00
2018-07-06T20:19:51.080Z,94948.45
2018-07-06T20:22:21.296Z,94951.39
2018-07-06T20:24:51.111Z,94954.00
2018-07-06T20:27:21.072Z,94956.48
2018-07-06T20:29:50.904Z,94954.23
2018-07-06T20:32:20.746Z,94953.34
2018-07-06T20:34:50.697Z,94952.30
2018-07-06T20:37:20.646Z,94950.97
2018-07-06T20:39:50.532Z,94954.95
2018-07-06T20:42:20.328Z,94953.80
2018-07-06T20:44:50.484Z,94963.49
2018-07-06T20:47:20.311Z,94964.36
2018-07-06T20:49:50.141Z,94962.42
2018-07-06T20:52:20.124Z,94969.03
2018-07-06T20:54:49.988Z,94965.37
2018-07-06T20:57:19.884Z,94970.70
2018-07-06T20:59:49.754Z,94974.20
2018-07-06T21:02:19.658Z,94974.65
2018-07-06T21:04:49.434Z,94983.70
2018-07-06T21:07:19.351Z,94986.20
2018-07-06T21:09:49.149Z,94982.02
2018-07-06T21:12:19.042Z,94981.56
2018-07-06T21:14:48.952Z,94992.96
2018-07-06T21:17:18.797Z,94989.16
2018-07-06T21:19:48.618Z,94987.55
2018-07-06T21:22:18.475Z,94978.98
2018-07-06T21:24:48.417Z,94977.09
2018-07-06T21:27:18.212Z,94978.65
2018-07-06T21:29:47.983Z,94980.67
2018-07-06T21:32:17.777Z,94975.58
2018-07-06T21:34:47.616Z,94975.24
2018-07-06T21:37:17.445Z,94982.66
2018-07-06T21:39:47.223Z,94980.89
2018-07-06T21:42:17.156Z,94982.41
2018-07-06T21:44:47.175Z,94976.95
2018-07-06T21:47:17.100Z,94980.39
2018-07-06T21:49:46.936Z,94976.55
2018-07-06T21:52:16.778Z,94979.09
2018-07-06T21:54:46.671Z,94975.24
2018-07-06T21:57:16.521Z,94970.86
2018-07-06T21:59:46.391Z,94968.31
2018-07-06T22:02:17.004Z,94968.20
2018-07-06T22:04:47.804Z,94962.34
2018-07-06T22:07:17.717Z,94955.92
2018-07-06T22:09:47.644Z,94963.14
2018-07-06T22:12:17.448Z,94962.86
2018-07-06T22:14:47.234Z,94958.95
2018-07-06T22:17:17.088Z,94961.73
2018-07-06T22:19:46.827Z,94949.89
2018-07-06T22:22:16.578Z,94946.17
2018-07-06T22:24:46.375Z,94952.53
2018-07-06T22:27:16.235Z,94952.91
2018-07-06T22:29:46.065Z,94944.45
2018-07-06T22:32:15.913Z,94943.41
2018-07-06T22:34:45.680Z,94937.89
2018-07-06T22:37:15.508Z,94937.91
2018-07-06T22:39:45.346Z,94935.25
2018-07-06T22:42:15.115Z,94932.55
2018-07-06T22:44:44.990Z,94937.91
2018-07-06T22:47:15.080Z,94929.72
2018-07-06T22:49:44.877Z,94945.20
2018-07-06T22:52:14.693Z,94934.81
2018-07-06T22:54:44.464Z,94939.59
2018-07-06T22:57:14.323Z,94939.39
2018-07-06T22:59:44.091Z,94931.30
2018-07-06T23:02:13.982Z,94928.92
2018-07-06T23:04:43.754Z,94930.86
2018-07-06T23:07:13.673Z,94925.78
2018-07-06T23:09:43.439Z,94921.70
2018-07-06T23:12:13.292Z,94922.25
2018-07-06T23:14:43.132Z,94925.00
2018-07-06T23:17:12.983Z,94927.09
2018-07-06T23:19:42.825Z,94918.54
2018-07-06T23:22:12.863Z,94918.23
2018-07-06T23:24:42.737Z,94922.41
2018-07-06T23:27:12.565Z,94917.61
2018-07-06T23:29:42.289Z,94924.15
2018-07-06T23:32:12.142Z,94922.45
2018-07-06T23:34:41.988Z,94921.32
2018-07-06T23:37:11.830Z,94916.98
2018-07-06T23:39:41.595Z,94916.73
2018-07-06T23:42:11.471Z,94921.78
2018-07-06T23:44:41.343Z,94926.96
2018-07-06T23:47:11.227Z,94930.49
2018-07-06T23:49:41.023Z,94920.73
2018-07-06T23:52:10.848Z,94917.16
2018-07-06T23:54:40.864Z,94912.79
2018-07-06T23:57:10.731Z,94912.84
2018-07-06T23:59:40.495Z,94916.91
